Time;durP1;ratioP1;P1;durP2;ratioP2;P2;SDS_P1;SDS_P2;PMS_P1;PMS_P2;Temp;Humidity;BMP_temperature;BMP_pressure;BME280_temperature;BME280_humidity;BME280_pressure;Samples;Min_cycle;Max_cycle;Signal;HPM_P1;HPM_P2
2021/12/21 00:00:28;;;;;;;19.42;11.25;;;;;;;5.05;83.51;100926.56;5056077;28;20040;-55
2021/12/21 00:02:59;;;;;;;17.70;10.95;;;;;;;5.02;83.43;100913.56;5070912;28;20041;-55
2021/12/21 00:05:29;;;;;;;23.00;13.18;;;;;;;5.02;83.18;100911.84;5071200;28;20422;-55
2021/12/21 00:08:03;;;;;;;21.90;10.80;;;;;;;5.02;82.46;100913.56;5071541;28;20067;-55
2021/12/21 00:10:34;;;;;;;19.58;11.15;;;;;;;5.01;83.24;100910.09;5056138;28;20033;-55
2021/12/21 00:23:40;;;;;;;17.17;11.38;;;;;;;4.99;82.81;100910.81;5054576;28;20037;-55
2021/12/21 00:26:21;;;;;;;18.17;11.15;;;;;;;4.98;83.37;100911.63;5054572;28;20386;-55
2021/12/21 00:28:59;;;;;;;18.45;10.70;;;;;;;4.98;82.98;100898.78;5037607;28;20079;-55
2021/12/21 00:31:38;;;;;;;18.92;10.70;;;;;;;4.97;83.05;100907.28;5055764;28;20083;-55
2021/12/21 00:34:15;;;;;;;20.63;10.40;;;;;;;4.97;83.24;100902.16;5037925;28;20071;-55
2021/12/21 00:36:52;;;;;;;19.30;11.05;;;;;;;4.96;82.94;100906.41;5054569;28;20071;-55
2021/12/21 00:39:20;;;;;;;18.73;9.88;;;;;;;4.96;83.22;100898.72;5055535;28;20063;-55
2021/12/21 00:41:47;;;;;;;21.05;10.70;;;;;;;4.96;83.10;100893.56;5054032;28;20037;-55
2021/12/21 00:44:16;;;;;;;15.80;9.80;;;;;;;4.96;83.16;100892.69;5054135;28;20091;-55
2021/12/21 00:46:44;;;;;;;16.15;10.50;;;;;;;4.95;83.11;100893.47;5054047;28;20041;-55
2021/12/21 00:49:17;;;;;;;23.30;11.57;;;;;;;4.94;83.41;100896.84;5053712;28;20039;-55
2021/12/21 00:51:48;;;;;;;22.38;10.05;;;;;;;4.94;82.96;100894.28;5053935;28;20033;-55
2021/12/21 00:54:26;;;;;;;13.17;10.07;;;;;;;4.94;83.37;100899.41;5070481;28;20411;-55
2021/12/21 00:56:51;;;;;;;17.70;11.80;;;;;;;4.92;83.48;100896.78;5070921;28;20697;-55
2021/12/21 00:59:17;;;;;;;16.48;10.20;;;;;;;4.93;83.00;100892.50;5054979;28;20037;-55
2021/12/21 01:01:45;;;;;;;15.20;8.68;;;;;;;4.93;83.02;100898.53;5054787;28;20033;-55
2021/12/21 01:04:24;;;;;;;19.15;9.73;;;;;;;4.91;83.16;100894.09;5054019;28;20129;-54
2021/12/21 01:07:05;;;;;;;18.90;10.50;;;;;;;4.91;83.30;100886.41;5037300;28;20396;-54
2021/12/21 01:12:14;;;;;;;15.68;9.32;;;;;;;4.90;83.07;100894.94;5054829;28;20042;-54
2021/12/21 01:17:37;;;;;;;15.25;10.02;;;;;;;4.89;83.27;100888.91;5054868;28;20041;-55
2021/12/21 01:20:12;;;;;;;16.40;11.20;;;;;;;4.87;83.04;100886.28;5053493;28;20114;-55
2021/12/21 01:28:03;;;;;;;19.33;10.35;;;;;;;4.86;83.42;100874.22;5054559;28;20040;-55
2021/12/21 01:35:50;;;;;;;23.80;12.32;;;;;;;4.84;83.07;100868.13;5054202;28;20033;-55
2021/12/21 01:38:36;;;;;;;20.52;10.80;;;;;;;4.84;82.81;100868.13;5054520;28;20037;-54
2021/12/21 01:41:22;;;;;;;21.55;11.52;;;;;;;4.83;83.19;100871.50;5053013;28;20036;-55
2021/12/21 01:44:02;;;;;;;24.42;11.60;;;;;;;4.84;83.54;100864.66;5054389;28;20044;-55
2021/12/21 01:52:02;;;;;;;19.10;11.75;;;;;;;4.82;83.71;100869.72;5054066;28;20087;-55
2021/12/21 01:54:28;;;;;;;18.98;11.70;;;;;;;4.81;82.79;100867.94;5054571;28;20068;-55
2021/12/21 01:56:56;;;;;;;19.63;10.95;;;;;;;4.81;82.82;100873.09;5053960;28;20476;-55
2021/12/21 01:59:22;;;;;;;25.92;11.95;;;;;;;4.81;83.21;100862.81;5036058;28;20032;-55
2021/12/21 02:01:48;;;;;;;21.13;12.30;;;;;;;4.81;82.61;100859.38;5068958;28;20106;-55
2021/12/21 02:04:21;;;;;;;22.42;10.63;;;;;;;4.81;83.16;100859.38;5054323;28;20667;-55
2021/12/21 02:06:49;;;;;;;22.67;11.73;;;;;;;4.80;83.84;100858.47;5053655;28;20045;-55
2021/12/21 02:09:16;;;;;;;22.60;10.98;;;;;;;4.80;82.69;100860.19;5036344;28;20029;-55
2021/12/21 02:11:51;;;;;;;28.85;11.27;;;;;;;4.80;83.41;100863.63;5052431;28;20485;-55
2021/12/21 02:14:19;;;;;;;15.50;10.20;;;;;;;4.79;83.21;100858.41;5053827;28;20431;-55
2021/12/21 02:22:05;;;;;;;;;;;;;;;4.77;83.06;100862.56;5054347;28;20048;-56
2021/12/21 02:24:50;;;;;;;21.27;11.88;;;;;;;4.75;83.26;100856.47;5052071;28;19924;-55
2021/12/21 02:27:25;;;;;;;17.77;9.93;;;;;;;4.75;82.91;100857.34;5069071;28;20037;-55
2021/12/21 02:29:56;;;;;;;14.57;9.90;;;;;;;4.73;82.66;100854.72;5035544;28;20043;-55
2021/12/21 02:32:24;;;;;;;15.68;9.75;;;;;;;4.73;83.65;100854.72;5053776;28;20025;-55
2021/12/21 02:34:52;;;;;;;19.45;10.48;;;;;;;4.73;82.83;100864.97;5053430;28;20491;-55
2021/12/21 02:37:18;;;;;;;18.90;11.07;;;;;;;4.73;82.87;100851.28;5052071;28;20033;-55
2021/12/21 02:39:43;;;;;;;21.95;11.52;;;;;;;4.73;83.11;100852.13;5053404;28;20048;-55
2021/12/21 02:42:14;;;;;;;20.90;11.00;;;;;;;4.72;83.12;100852.94;5053278;28;20392;-55
2021/12/21 02:44:48;;;;;;;19.27;11.23;;;;;;;4.72;83.31;100854.63;5053692;28;20044;-56
2021/12/21 02:47:17;;;;;;;18.08;11.32;;;;;;;4.71;83.29;100860.56;5052300;28;20430;-55
2021/12/21 02:49:45;;;;;;;14.35;9.07;;;;;;;4.71;83.12;100846.03;5053313;28;20070;-56
2021/12/21 02:52:13;;;;;;;17.08;11.73;;;;;;;4.70;82.88;100846.84;5053184;28;20048;-55
2021/12/21 02:54:50;;;;;;;20.73;10.45;;;;;;;4.69;83.49;100852.78;5052519;28;20036;-55
2021/12/21 02:57:15;;;;;;;23.63;11.60;;;;;;;4.68;83.41;100845.00;5052315;28;20037;-55
2021/12/21 02:59:46;;;;;;;24.42;13.15;;;;;;;4.67;82.80;100846.66;5053198;28;20033;-55
2021/12/21 03:02:14;;;;;;;17.50;11.00;;;;;;;4.66;83.43;100837.22;5052310;28;20051;-55
2021/12/21 03:04:50;;;;;;;18.75;11.45;;;;;;;4.66;83.36;100839.78;5057119;28;20120;-55
2021/12/21 03:08:03;;;;;;;19.27;10.63;;;;;;;4.66;83.38;100842.38;5057019;28;20511;-57
2021/12/21 03:10:16;;;;;;;20.42;10.55;;;;;;;4.65;83.56;100839.69;5056609;28;20071;-55
2021/12/21 03:15:28;;;;;;;23.75;11.50;;;;;;;4.63;83.06;100834.50;5057535;28;20037;-55
2021/12/21 03:18:05;;;;;;;20.65;12.57;;;;;;;4.64;83.26;100835.34;5055690;28;20090;-55
2021/12/21 03:20:38;;;;;;;19.17;12.02;;;;;;;4.61;83.25;100833.53;5056898;28;20037;-55
2021/12/21 03:23:12;;;;;;;22.75;13.13;;;;;;;4.61;83.06;100830.97;5072418;28;20047;-55
2021/12/21 03:25:43;;;;;;;25.00;13.25;;;;;;;4.61;83.07;100837.75;5039478;28;20037;-55
2021/12/21 03:28:09;;;;;;;21.60;12.40;;;;;;;4.60;82.75;100833.41;5056818;28;20037;-55
2021/12/21 03:30:34;;;;;;;19.75;12.68;;;;;;;4.61;83.59;100835.19;5056500;28;20059;-55
2021/12/21 03:33:05;;;;;;;20.15;12.70;;;;;;;4.59;83.22;100837.69;5056707;28;20072;-54
2021/12/21 03:35:36;;;;;;;20.48;12.27;;;;;;;4.59;83.11;100835.13;5072158;28;20033;-55
2021/12/21 03:38:02;;;;;;;22.35;12.63;;;;;;;4.57;83.81;100837.63;5055368;28;20041;-55
2021/12/21 03:40:34;;;;;;;19.40;13.68;;;;;;;4.59;82.79;100844.53;5055548;28;20032;-55
2021/12/21 03:43:02;;;;;;;;;;;;;;;4.56;83.30;100845.22;5072209;28;20403;-55
2021/12/21 03:45:39;;;;;;;22.10;13.63;;;;;;;4.55;83.51;100835.75;5056438;28;19992;-54
2021/12/21 03:48:12;;;;;;;19.63;11.50;;;;;;;4.55;83.03;100836.66;5072091;28;20083;-55
2021/12/21 03:50:41;;;;;;;22.25;11.35;;;;;;;4.54;83.17;100836.56;5055076;28;20480;-55
2021/12/21 03:53:18;;;;;;;20.77;13.05;;;;;;;4.52;82.82;100828.78;5056347;28;20086;-55
2021/12/21 03:56:10;;;;;;;24.35;13.45;;;;;;;4.52;83.09;100826.22;5056622;28;20049;-55
2021/12/21 03:58:42;;;;;;;21.52;12.30;;;;;;;4.52;83.40;100833.91;5038458;28;20029;-55
2021/12/21 04:01:08;;;;;;;24.65;13.00;;;;;;;4.52;82.54;100833.91;5056072;28;20072;-55
2021/12/21 04:03:37;;;;;;;21.80;12.70;;;;;;;4.51;83.49;100837.28;5054472;28;20053;-55
2021/12/21 04:06:10;;;;;;;23.02;12.40;;;;;;;4.51;82.96;100836.41;5055165;28;20029;-54
2021/12/21 04:08:46;;;;;;;21.08;12.20;;;;;;;4.51;83.01;100833.84;5071260;28;20559;-55
2021/12/21 04:11:20;;;;;;;23.83;12.57;;;;;;;4.50;82.61;100830.38;5054907;28;20066;-55
2021/12/21 04:13:52;;;;;;;26.20;12.80;;;;;;;4.49;83.50;100826.03;5037623;28;20417;-54
2021/12/21 04:16:26;;;;;;;19.60;12.27;;;;;;;4.49;83.43;100830.31;5055974;28;20504;-56
2021/12/21 04:19:00;;;;;;;23.38;13.18;;;;;;;4.48;82.87;100820.84;5056099;28;20041;-55
2021/12/21 04:21:30;;;;;;;;;;;;;;;4.47;83.29;100819.94;5056116;28;20395;-55
2021/12/21 04:24:04;;;;;;;16.88;11.18;;;;;;;4.46;83.23;100831.00;5054567;28;19924;-55
2021/12/21 04:26:33;;;;;;;19.83;12.15;;;;;;;4.46;83.01;100825.00;5055991;28;20052;-54
2021/12/21 04:29:03;;;;;;;21.92;11.75;;;;;;;4.45;83.80;100823.25;5055643;28;20037;-54
2021/12/21 04:31:34;;;;;;;18.33;12.00;;;;;;;4.45;83.08;100821.53;5038074;28;20037;-55
2021/12/21 04:34:08;;;;;;;25.13;13.73;;;;;;;4.43;83.28;100820.59;5054579;28;20037;-55
2021/12/21 04:36:44;;;;;;;16.90;11.53;;;;;;;4.44;83.33;100821.47;5054396;28;20040;-55
2021/12/21 04:39:27;;;;;;;28.40;12.88;;;;;;;4.44;83.04;100806.06;5037522;28;20455;-55
2021/12/21 04:41:59;;;;;;;16.65;11.25;;;;;;;4.41;83.17;100805.09;5054010;28;20079;-54
2021/12/21 04:44:30;;;;;;;23.15;12.65;;;;;;;4.43;83.67;100815.47;5054281;28;20041;-55
2021/12/21 04:47:01;;;;;;;21.65;11.98;;;;;;;4.41;83.28;100806.81;5053745;28;20033;-55
2021/12/21 04:49:35;;;;;;;20.73;12.60;;;;;;;4.42;83.36;100806.00;5054008;28;20064;-54
2021/12/21 04:52:09;;;;;;;20.05;11.88;;;;;;;4.42;83.42;100808.56;5071051;28;20056;-55
2021/12/21 04:54:42;;;;;;;21.75;11.27;;;;;;;4.40;82.87;100805.03;5055266;28;20070;-54
2021/12/21 04:57:15;;;;;;;25.23;13.02;;;;;;;4.40;83.41;100808.47;5037453;28;20078;-55
2021/12/21 04:59:49;;;;;;;19.37;12.07;;;;;;;4.39;82.75;100804.13;5055105;28;20041;-55
2021/12/21 05:02:20;;;;;;;19.67;12.20;;;;;;;4.40;83.29;100807.59;5054756;28;20299;-55
2021/12/21 05:04:48;;;;;;;20.15;12.65;;;;;;;4.40;83.08;100802.47;5055142;28;20036;-56
2021/12/21 05:07:23;;;;;;;20.92;12.05;;;;;;;4.39;83.31;100799.00;5054990;28;20033;-55
2021/12/21 05:09:59;;;;;;;21.23;12.27;;;;;;;4.38;83.41;100798.94;5054961;28;20090;-55
2021/12/21 05:12:28;;;;;;;20.83;10.70;;;;;;;4.39;83.18;100800.69;5055032;28;20143;-54
2021/12/21 05:14:55;;;;;;;23.83;11.77;;;;;;;4.38;83.36;100809.19;5053534;28;20029;-55
2021/12/21 05:17:27;;;;;;;17.85;10.48;;;;;;;4.37;83.42;100802.31;5053407;28;20037;-54
2021/12/21 05:19:52;;;;;;;17.63;10.82;;;;;;;4.36;83.42;100795.41;5054650;28;20083;-55
2021/12/21 05:22:31;;;;;;;19.65;12.05;;;;;;;4.36;83.08;100801.41;5053401;28;20520;-55
2021/12/21 05:24:57;;;;;;;16.92;10.48;;;;;;;4.35;83.42;100798.75;5053515;28;20096;-56
2021/12/21 05:27:28;;;;;;;18.08;11.40;;;;;;;4.34;83.39;100799.56;5054357;28;20033;-55
2021/12/21 05:30:05;;;;;;;19.60;11.10;;;;;;;4.34;83.02;100809.84;5069801;28;20047;-55
2021/12/21 05:32:31;;;;;;;19.35;10.73;;;;;;;4.33;83.17;100797.78;5054887;28;20037;-55
2021/12/21 05:35:01;;;;;;;21.45;10.82;;;;;;;4.32;83.01;100796.03;5053144;28;20167;-55
2021/12/21 05:37:29;;;;;;;14.13;9.98;;;;;;;4.32;82.98;100798.59;5036748;28;20136;-55
2021/12/21 05:40:10;;;;;;;17.23;10.70;;;;;;;4.33;83.30;100802.94;5036424;28;20041;-54
2021/12/21 05:42:39;;;;;;;16.67;10.35;;;;;;;4.32;82.87;100804.63;5052800;28;20067;-54
2021/12/21 05:45:15;;;;;;;19.13;10.30;;;;;;;4.31;83.15;100800.28;5052897;28;20515;-55
2021/12/21 05:47:44;;;;;;;15.25;9.77;;;;;;;4.31;83.37;100791.69;5052910;28;20080;-54
2021/12/21 05:50:17;;;;;;;13.13;10.02;;;;;;;4.30;83.19;100800.19;5054105;28;20104;-55
2021/12/21 05:52:48;;;;;;;16.80;10.85;;;;;;;4.30;83.00;100800.19;5054348;28;20059;-55
2021/12/21 05:55:17;;;;;;;;;;;;;;;4.29;82.96;100785.59;5053495;28;20033;-55
2021/12/21 05:57:46;;;;;;;13.70;9.48;;;;;;;4.26;83.30;100794.91;5054009;28;19970;-55
2021/12/21 06:00:20;;;;;;;15.70;9.88;;;;;;;4.26;83.15;100794.91;5052619;28;20029;-54
2021/12/21 06:02:48;;;;;;;15.35;9.23;;;;;;;4.26;82.64;100800.06;5052832;28;20053;-55
2021/12/21 06:05:19;;;;;;;15.00;9.35;;;;;;;4.26;82.95;100796.59;5036618;28;20416;-55
2021/12/21 06:07:52;;;;;;;14.15;9.60;;;;;;;4.26;82.96;100799.16;5036134;28;20039;-54
2021/12/21 06:10:37;;;;;;;15.88;9.13;;;;;;;4.24;83.29;100796.53;5053748;28;20032;-55
2021/12/21 06:16:19;;;;;;;11.63;8.43;;;;;;;4.22;82.85;100805.81;5052431;28;19912;-55
2021/12/21 06:27:13;;;;;;;14.18;8.90;;;;;;;4.20;82.85;100812.53;5053680;28;20065;-54
2021/12/21 06:29:42;;;;;;;15.07;8.57;;;;;;;4.18;83.51;100811.56;5053773;28;20041;-55
2021/12/21 06:32:09;;;;;;;16.48;8.27;;;;;;;4.19;83.26;100809.91;5053508;28;20037;-55
2021/12/21 06:34:37;;;;;;;13.75;8.50;;;;;;;4.18;83.26;100809.00;5052259;28;20048;-55
2021/12/21 06:37:06;;;;;;;15.82;9.20;;;;;;;4.18;82.91;100816.69;5036346;28;20056;-54
2021/12/21 06:39:40;;;;;;;16.15;8.70;;;;;;;4.18;82.57;100821.84;5052324;28;20033;-55
2021/12/21 06:42:09;;;;;;;16.98;9.68;;;;;;;4.17;82.87;100829.47;5035303;28;20094;-55
2021/12/21 06:44:43;;;;;;;12.82;8.82;;;;;;;4.16;83.37;100820.88;5052571;28;20029;-54
2021/12/21 06:52:48;;;;;;;16.10;9.63;;;;;;;4.15;83.14;100831.06;5037566;28;20530;-55
2021/12/21 06:55:17;;;;;;;12.75;10.13;;;;;;;4.15;83.35;100828.50;5053271;28;20048;-54
2021/12/21 06:57:45;;;;;;;15.90;8.07;;;;;;;4.14;83.68;100831.84;5053246;28;20044;-55
2021/12/21 07:00:16;;;;;;;12.57;9.13;;;;;;;4.13;82.72;100830.94;5053120;28;20416;-54
2021/12/21 07:02:42;;;;;;;16.42;9.10;;;;;;;4.13;83.29;100833.53;5051562;28;20428;-55
2021/12/21 07:05:12;;;;;;;16.58;9.80;;;;;;;4.12;82.84;100829.22;5051877;28;20040;-55
2021/12/21 07:07:38;;;;;;;16.55;9.23;;;;;;;4.11;82.86;100832.59;5051972;28;20041;-55
2021/12/21 07:10:08;;;;;;;14.57;9.00;;;;;;;4.11;83.33;100833.44;5053447;28;20054;-55
2021/12/21 07:18:12;;;;;;;15.55;9.77;;;;;;;4.10;83.12;100823.13;5053300;28;20049;-55
2021/12/21 07:20:43;;;;;;;21.23;10.15;;;;;;;4.08;83.25;100820.44;5052362;28;20041;-54
2021/12/21 07:23:13;;;;;;;16.85;8.15;;;;;;;4.08;82.91;100834.97;5068651;28;20033;-55
2021/12/21 07:25:39;;;;;;;15.32;8.70;;;;;;;4.07;83.24;100839.19;5051861;28;20033;-54
2021/12/21 07:28:12;;;;;;;15.10;9.27;;;;;;;4.06;83.39;100841.69;5052825;28;20044;-54
2021/12/21 07:30:44;;;;;;;14.05;8.57;;;;;;;4.06;82.68;100836.56;5051286;28;20040;-54
2021/12/21 07:33:09;;;;;;;12.65;8.57;;;;;;;4.06;83.39;100839.13;5053248;28;20093;-55
2021/12/21 07:35:43;;;;;;;15.27;8.82;;;;;;;4.05;82.84;100834.78;5053236;28;20108;-55
2021/12/21 07:38:19;;;;;;;13.23;9.25;;;;;;;4.04;82.89;100833.94;5051975;28;20044;-55
2021/12/21 07:40:45;;;;;;;15.93;8.60;;;;;;;4.03;82.85;100831.25;5051715;28;20607;-55
2021/12/21 07:43:19;;;;;;;14.73;8.90;;;;;;;4.03;82.88;100831.25;5052221;28;20127;-54
2021/12/21 07:45:47;;;;;;;16.98;9.30;;;;;;;4.02;83.19;100835.53;5051888;28;20033;-55
2021/12/21 07:48:21;;;;;;;15.80;9.02;;;;;;;4.01;82.70;100832.84;5052453;28;20126;-54
2021/12/21 07:50:52;;;;;;;14.23;8.43;;;;;;;4.01;82.84;100841.44;5038662;28;20041;-55
2021/12/21 07:53:21;;;;;;;15.13;8.90;;;;;;;4.02;83.14;100839.75;5038943;28;20066;-55
2021/12/21 07:56:01;;;;;;;17.65;9.48;;;;;;;4.00;83.34;100841.34;5038387;28;20060;-54
2021/12/21 07:58:30;;;;;;;13.27;8.48;;;;;;;4.00;82.65;100836.22;5055038;28;20127;-55
2021/12/21 08:00:58;;;;;;;13.23;6.97;;;;;;;3.99;82.91;100840.47;5054885;28;20029;-54
2021/12/21 08:03:33;;;;;;;16.10;9.10;;;;;;;3.98;82.43;100848.97;5054597;28;20045;-55
2021/12/21 08:06:12;;;;;;;15.27;9.35;;;;;;;3.97;83.17;100836.94;5056436;28;20111;-54
2021/12/21 08:08:45;;;;;;;15.13;9.05;;;;;;;3.97;82.78;100847.19;5055147;28;20102;-54
2021/12/21 08:12:10;;;;;;;13.73;8.88;;;;;;;3.95;83.00;100838.53;5055156;28;20033;-55
2021/12/21 08:14:23;;;;;;;15.85;8.75;;;;;;;3.95;82.89;100841.09;5055829;28;20484;-54
2021/12/21 08:16:52;;;;;;;13.38;8.77;;;;;;;3.94;82.98;100844.47;5056115;28;20029;-55
2021/12/21 08:19:24;;;;;;;12.77;8.80;;;;;;;3.93;83.09;100843.59;5055782;28;20439;-55
2021/12/21 08:22:01;;;;;;;14.95;9.77;;;;;;;3.93;83.08;100845.25;5055175;28;20420;-54
2021/12/21 08:24:35;;;;;;;13.60;8.43;;;;;;;3.92;83.15;100839.25;5055994;28;20029;-55
2021/12/21 08:27:09;;;;;;;14.60;8.55;;;;;;;3.91;83.25;100836.59;5055173;28;20059;-54
2021/12/21 08:29:37;;;;;;;16.23;9.65;;;;;;;3.91;83.26;100839.16;5055591;28;20465;-54
2021/12/21 08:32:09;;;;;;;12.27;8.70;;;;;;;3.91;82.72;100834.91;5037385;28;20067;-55
2021/12/21 08:34:39;;;;;;;15.80;9.27;;;;;;;3.90;83.37;100832.25;5054486;28;20033;-54
2021/12/21 08:37:13;;;;;;;15.87;9.20;;;;;;;3.90;82.72;100834.81;5038071;28;20047;-55
2021/12/21 08:39:45;;;;;;;16.08;9.63;;;;;;;3.89;83.02;100833.09;5054385;28;20036;-55
2021/12/21 08:42:15;;;;;;;13.88;10.25;;;;;;;3.88;82.75;100839.00;5055525;28;20390;-55
2021/12/21 08:44:46;;;;;;;16.33;10.25;;;;;;;3.87;82.73;100838.09;5055468;28;20037;-55
2021/12/21 08:47:12;;;;;;;18.20;10.98;;;;;;;3.88;83.28;100834.75;5054202;28;20051;-55
2021/12/21 08:49:46;;;;;;;21.38;11.63;;;;;;;3.86;82.82;100833.78;5055506;28;20103;-55
2021/12/21 08:52:19;;;;;;;17.58;12.20;;;;;;;3.86;83.15;100841.47;5054655;28;20102;-55
2021/12/21 08:54:51;;;;;;;16.95;12.07;;;;;;;3.86;82.94;100840.59;5055225;28;20480;-55
2021/12/21 08:57:24;;;;;;;17.88;12.18;;;;;;;3.85;82.86;100834.56;5053934;28;20033;-55
2021/12/21 08:59:50;;;;;;;15.70;11.40;;;;;;;3.85;82.49;100838.81;5053847;28;20491;-54
2021/12/21 09:02:23;;;;;;;18.63;12.00;;;;;;;3.86;82.78;100840.59;5053404;28;20144;-54
2021/12/21 09:04:57;;;;;;;20.23;13.00;;;;;;;3.85;82.51;100849.09;5054195;28;20114;-54
2021/12/21 09:07:30;;;;;;;20.80;11.98;;;;;;;3.85;82.70;100856.78;5054902;28;20041;-54
2021/12/21 09:10:08;;;;;;;17.95;13.48;;;;;;;3.85;83.05;100851.66;5070252;28;20048;-54
2021/12/21 09:12:42;;;;;;;23.35;13.57;;;;;;;3.85;83.01;100856.78;5053678;28;20080;-55
2021/12/21 09:15:10;;;;;;;21.20;13.57;;;;;;;3.85;83.18;100854.22;5054645;28;20029;-54
2021/12/21 09:17:42;;;;;;;20.23;12.43;;;;;;;3.83;82.47;100853.25;5070041;28;20032;-55
2021/12/21 09:20:13;;;;;;;21.65;13.48;;;;;;;3.81;82.62;100854.03;5053394;28;20045;-56
2021/12/21 09:22:44;;;;;;;20.23;13.55;;;;;;;3.83;82.81;100858.38;5053390;28;20037;-55
2021/12/21 09:25:16;;;;;;;20.23;13.25;;;;;;;3.82;83.02;100857.47;5054618;28;20052;-54
2021/12/21 09:27:50;;;;;;;20.42;12.10;;;;;;;3.81;82.97;100853.16;5053243;28;20037;-55
2021/12/21 09:30:21;;;;;;;22.20;12.48;;;;;;;3.81;82.93;100854.03;5053599;28;20060;-55
2021/12/21 09:32:56;;;;;;;18.50;12.18;;;;;;;3.81;83.16;100854.03;5053488;28;20131;-55
2021/12/21 09:35:33;;;;;;;21.10;12.63;;;;;;;3.81;83.03;100858.28;5054474;28;20037;-55
2021/12/21 09:38:04;;;;;;;17.33;11.52;;;;;;;3.81;82.92;100856.59;5070050;28;20048;-55
2021/12/21 09:40:38;;;;;;;26.48;14.18;;;;;;;3.81;82.95;100858.28;5054285;28;20036;-56
2021/12/21 09:43:07;;;;;;;;;;;;;;;3.79;82.77;100853.06;5070209;28;20041;-55
2021/12/21 09:45:36;;;;;;;20.58;12.85;;;;;;;3.79;82.89;100853.06;5036770;28;19962;-56
2021/12/21 09:48:07;;;;;;;15.68;12.27;;;;;;;3.78;83.13;100855.56;5052986;28;20037;-55
2021/12/21 09:50:42;;;;;;;17.58;10.88;;;;;;;3.77;83.18;100854.66;5052874;28;20032;-55
2021/12/21 09:53:16;;;;;;;15.05;10.88;;;;;;;3.76;82.76;100852.88;5053929;28;20040;-55
2021/12/21 09:55:49;;;;;;;16.20;11.00;;;;;;;3.76;82.79;100847.75;5053026;28;20158;-55
2021/12/21 09:58:24;;;;;;;15.55;11.02;;;;;;;3.76;82.71;100855.44;5069500;28;20564;-55
2021/12/21 10:00:57;;;;;;;;;;;;;;;3.75;82.52;100848.56;5052981;28;20041;-55
2021/12/21 10:03:33;;;;;;;19.38;11.25;;;;;;;3.75;82.80;100853.69;5053925;28;20432;-55
2021/12/21 10:06:05;;;;;;;16.85;10.73;;;;;;;3.75;82.45;100855.38;5052600;28;20044;-55
2021/12/21 10:08:37;;;;;;;16.23;11.02;;;;;;;3.74;82.39;100854.47;5052734;28;20025;-55
2021/12/21 10:11:20;;;;;;;14.95;10.23;;;;;;;3.74;82.65;100854.47;5068653;28;20037;-55
2021/12/21 10:13:53;;;;;;;15.77;9.20;;;;;;;3.74;82.94;100854.47;5054056;28;20041;-55
2021/12/21 10:16:28;;;;;;;14.32;10.82;;;;;;;3.74;83.22;100856.16;5052345;28;20553;-55
2021/12/21 10:19:02;;;;;;;14.38;11.27;;;;;;;3.74;82.94;100862.16;5052343;28;20144;-55
2021/12/21 10:21:32;;;;;;;16.50;10.70;;;;;;;3.74;83.29;100859.59;5068965;28;20036;-55
2021/12/21 10:24:08;;;;;;;16.95;10.98;;;;;;;3.73;83.05;100863.00;5053004;28;20491;-55
2021/12/21 10:26:39;;;;;;;17.08;9.70;;;;;;;3.73;83.48;100860.44;5052193;28;20033;-56
2021/12/21 10:29:15;;;;;;;12.40;8.43;;;;;;;3.74;82.58;100858.72;5052263;28;20041;-55
2021/12/21 10:31:48;;;;;;;12.98;9.20;;;;;;;3.74;83.01;100858.72;5053578;28;20511;-54
2021/12/21 10:34:26;;;;;;;13.15;9.65;;;;;;;3.73;82.42;100854.41;5052232;28;20037;-54
2021/12/21 10:36:57;;;;;;;17.25;10.05;;;;;;;3.72;82.52;100856.09;5053889;28;20045;-55
2021/12/21 10:39:32;;;;;;;;;;;;;;;3.72;82.38;100847.50;5053037;28;20516;-55
2021/12/21 10:42:03;;;;;;;18.13;9.63;;;;;;;3.72;82.65;100852.63;5053478;28;19917;-55
2021/12/21 10:44:37;;;;;;;18.33;9.25;;;;;;;3.72;82.94;100850.06;5052174;28;20448;-55
2021/12/21 10:47:06;;;;;;;14.57;8.88;;;;;;;3.72;82.38;100848.41;5053858;28;20039;-55
2021/12/21 10:49:48;;;;;;;17.52;9.32;;;;;;;3.72;83.13;100850.97;5052359;28;20400;-54
2021/12/21 10:52:23;;;;;;;16.35;9.70;;;;;;;3.72;83.15;100844.94;5052329;28;20051;-55
2021/12/21 10:54:54;;;;;;;16.25;8.75;;;;;;;3.75;83.15;100840.00;5053327;28;20488;-53
2021/12/21 10:57:33;;;;;;;11.82;8.60;;;;;;;3.75;82.64;100837.41;5051764;28;20033;-56
2021/12/21 11:00:07;;;;;;;13.45;8.70;;;;;;;3.75;82.93;100834.84;5035565;28;20439;-55
2021/12/21 11:02:38;;;;;;;10.65;8.25;;;;;;;3.76;82.95;100832.38;5051544;28;20548;-55
2021/12/21 11:05:29;;;;;;;15.85;9.25;;;;;;;3.77;82.35;100828.13;5053298;28;20041;-55
2021/12/21 11:08:16;;;;;;;11.15;8.13;;;;;;;3.78;82.52;100822.22;5053168;28;20032;-56
2021/12/21 11:10:51;;;;;;;;;;;;;;;3.79;82.18;100821.41;5053726;28;20037;-55
2021/12/21 11:13:28;;;;;;;10.45;7.78;;;;;;;3.80;82.72;100812.94;5068024;28;19916;-54
2021/12/21 11:16:04;;;;;;;12.68;7.60;;;;;;;3.82;82.98;100811.31;5053153;28;20040;-56
2021/12/21 11:18:37;;;;;;;14.75;9.30;;;;;;;3.84;82.49;100812.28;5052288;28;20037;-54
2021/12/21 11:21:09;;;;;;;9.93;6.97;;;;;;;3.86;82.64;100813.25;5053150;28;20040;-53
2021/12/21 11:23:41;;;;;;;11.05;7.97;;;;;;;3.86;82.40;100803.00;5054425;28;20503;-56
2021/12/21 11:26:15;;;;;;;12.40;8.07;;;;;;;3.87;82.41;100809.91;5055603;28;20477;-55
2021/12/21 11:28:44;;;;;;;13.00;8.60;;;;;;;3.89;82.53;100798.03;5055931;28;20064;-56
2021/12/21 11:31:10;;;;;;;13.93;7.90;;;;;;;3.90;82.83;100806.59;5056790;28;20033;-56
2021/12/21 11:33:46;;;;;;;10.50;7.82;;;;;;;3.92;82.81;100803.34;5056898;28;20142;-56
2021/12/21 11:39:03;;;;;;;12.40;8.43;;;;;;;3.95;81.98;100793.25;5056667;28;20051;-56
2021/12/21 11:41:29;;;;;;;9.38;6.97;;;;;;;3.98;82.65;100792.53;5056772;28;20041;-56
2021/12/21 11:44:21;;;;;;;10.75;7.03;;;;;;;4.00;82.91;100783.25;5055474;28;20045;-56
2021/12/21 11:46:55;;;;;;;10.65;6.53;;;;;;;4.01;82.69;100776.41;5055559;28;20033;-55
2021/12/21 11:49:33;;;;;;;16.10;8.13;;;;;;;4.02;82.79;100773.06;5055258;28;20183;-56
2021/12/21 11:52:14;;;;;;;12.45;8.15;;;;;;;4.03;82.57;100770.59;5056713;28;20118;-56
2021/12/21 11:55:07;;;;;;;12.10;6.78;;;;;;;4.03;83.15;100764.56;5055497;28;20040;-55
2021/12/21 11:58:02;;;;;;;10.48;6.90;;;;;;;4.05;82.67;100768.09;5056422;28;20025;-55
2021/12/21 12:00:31;;;;;;;9.50;6.68;;;;;;;4.05;82.32;100771.53;5050493;28;20121;-56
2021/12/21 12:03:09;;;;;;;10.07;6.82;;;;;;;4.05;82.72;100766.41;5054481;28;20056;-55
2021/12/21 12:05:44;;;;;;;11.25;6.93;;;;;;;4.06;82.31;100764.72;5055262;28;20124;-55
2021/12/21 12:08:15;;;;;;;9.18;6.50;;;;;;;4.06;82.35;100764.72;5038220;28;20045;-55
2021/12/21 12:10:54;;;;;;;9.80;7.25;;;;;;;4.05;82.87;100763.84;5054707;28;20036;-55
2021/12/21 12:13:31;;;;;;;9.68;7.55;;;;;;;4.08;82.41;100755.44;5056142;28;20041;-55
2021/12/21 12:16:08;;;;;;;9.52;6.97;;;;;;;4.07;82.37;100748.53;5055994;28;20064;-55
2021/12/21 12:18:33;;;;;;;13.10;7.40;;;;;;;4.07;82.73;100753.69;5038123;28;20040;-55
2021/12/21 12:21:21;;;;;;;9.60;6.90;;;;;;;4.06;82.79;100750.22;5055796;28;20073;-55
2021/12/21 12:23:52;;;;;;;11.85;8.13;;;;;;;4.08;82.87;100755.44;5054429;28;20480;-55
2021/12/21 12:26:31;;;;;;;13.73;8.35;;;;;;;4.07;82.37;100754.53;5054763;28;20041;-55
2021/12/21 12:29:15;;;;;;;11.68;7.25;;;;;;;4.07;82.42;100745.97;5054611;28;20029;-55
2021/12/21 12:31:47;;;;;;;12.93;7.60;;;;;;;4.07;82.53;100753.69;5055948;28;20094;-55
2021/12/21 12:34:34;;;;;;;12.00;7.97;;;;;;;4.06;82.37;100744.22;5054394;28;20627;-54
2021/12/21 12:37:21;;;;;;;14.50;8.57;;;;;;;4.06;82.29;100742.50;5054597;28;20041;-55
2021/12/21 12:39:54;;;;;;;11.85;7.88;;;;;;;4.06;82.33;100742.50;5054528;28;20488;-55
2021/12/21 12:42:26;;;;;;;11.70;9.25;;;;;;;4.05;82.20;100743.31;5054865;28;20048;-54
2021/12/21 12:45:15;;;;;;;12.75;9.32;;;;;;;4.05;82.68;100742.44;5054181;28;20068;-55
2021/12/21 12:47:54;;;;;;;12.32;8.68;;;;;;;4.05;82.72;100737.31;5055336;28;20400;-55
2021/12/21 12:50:30;;;;;;;13.65;9.07;;;;;;;4.03;82.09;100736.34;5055926;28;20119;-54
2021/12/21 12:53:05;;;;;;;14.70;8.80;;;;;;;4.02;82.51;100726.88;5055505;28;20040;-54
2021/12/21 12:55:39;;;;;;;11.88;8.00;;;;;;;4.02;82.49;100726.88;5055181;28;20078;-55